Yvonne — A8NE8 — position and weather

sailwx.info

Track history (hours):
 
Tides and Currents Weather Stations Pressure Air Temp Water Temp Dewpoint Dewpoint Depression Visibility Wind Speed Wind Dir Waves Ship Positions

Yvonne

Last reported at 2018-Jun-15 10:22 UTC. Time now 2018-Jun-21 17:51 UTC.
Position N 01°30' E 103°08'.

Length 190 m; draft 9.4 m.

Type: Cargo ship. MMSI: 636013469.

Date/timePositionNaut miles runAvg speedWind from/ knotsBaromVisibWave heightAir tempDewpointWater temp
2018-Jun-15 10:22N 01°30' E 103°08'814.7
2018-Jun-15 09:51N 01°25' E 103°14'615.0
2018-Jun-15 09:27N 01°21' E 103°18'614.6
2018-Jun-15 09:00N 01°16' E 103°23'714.0
2018-Jun-15 08:30N 01°13' E 103°30'713.4
2018-Jun-15 08:00N 01°12' E 103°36'713.3
2018-Jun-15 07:31N 01°10' E 103°42'611.4
2018-Jun-15 07:00N 01°10' E 103°48'612.0
2018-Jun-15 06:30N 01°13' E 103°53'3 6.7
2018-Jun-15 06:00N 01°15' E 103°56'3 5.7
2018-Jun-15 05:30N 01°17' E 103°54'0 0.2
2018-Jun-15 04:58N 01°17' E 103°54'0 0.0
2018-Jun-15 04:23N 01°17' E 103°54'0 0.1
2018-Jun-15 03:53N 01°17' E 103°54'0 0.1
2018-Jun-15 03:29N 01°17' E 103°54'0 0.2
2018-Jun-15 02:52N 01°17' E 103°54'0 0.1
2018-Jun-15 02:26N 01°17' E 103°54'0 0.1
2018-Jun-15 01:56N 01°17' E 103°54'0 0.0
2018-Jun-15 01:23N 01°17' E 103°54'0 0.0
2018-Jun-15 00:59N 01°17' E 103°54'0 0.0
2018-Jun-15 00:29N 01°17' E 103°54'0 0.0
2018-Jun-14 23:59N 01°17' E 103°54'0 0.1
2018-Jun-14 23:22N 01°17' E 103°54'0 0.3
2018-Jun-14 22:56N 01°17' E 103°54'0 0.0
2018-Jun-14 22:26N 01°17' E 103°54'0 0.0
2018-Jun-14 21:56N 01°17' E 103°54'0 0.1
2018-Jun-14 21:29N 01°17' E 103°54'0 0.0
2018-Jun-14 20:58N 01°17' E 103°54'0 0.0
2018-Jun-14 20:26N 01°17' E 103°54'0 0.0
2018-Jun-14 19:56N 01°17' E 103°54'0 0.1
2018-Jun-14 19:29N 01°17' E 103°54'0 0.1
2018-Jun-14 18:58N 01°17' E 103°54'0 0.1
2018-Jun-14 18:23N 01°17' E 103°54'0 0.0
2018-Jun-14 17:59N 01°17' E 103°54'0 0.0
2018-Jun-14 17:28N 01°17' E 103°54'0 0.0
2018-Jun-14 16:58N 01°17' E 103°54'0 0.0
2018-Jun-14 16:26N 01°17' E 103°54'0 0.4
2018-Jun-14 15:59N 01°17' E 103°54'0 0.2
2018-Jun-14 15:29N 01°17' E 103°54'1 1.7
2018-Jun-14 15:00N 01°16' E 103°54'2 4.5
2018-Jun-14 14:28N 01°14' E 103°55'2 4.7
2018-Jun-14 14:00N 01°15' E 103°57'3 6.6
2018-Jun-14 13:29N 01°16' E 104°00'4 7.4
2018-Jun-14 12:57N 01°16' E 104°04'410.3
2018-Jun-14 12:30N 01°17' E 104°08'612.7
2018-Jun-14 12:00N 01°18' E 104°15'713.7
2018-Jun-14 11:30N 01°20' E 104°21'713.9
2018-Jun-14 11:00N 01°24' E 104°27'  
2018-Jun-05 16:06N 23°05' E 117°46'212.7
2018-Jun-05 15:58N 23°06' E 117°48'612.6
2018-Jun-05 15:29N 23°10' E 117°53'612.8
2018-Jun-05 15:00N 23°14' E 117°58'612.8
2018-Jun-05 14:30N 23°18' E 118°03'613.1
2018-Jun-05 14:00N 23°21' E 118°09'713.0
2018-Jun-05 13:30N 23°26' E 118°15'612.9
2018-Jun-05 13:00N 23°30' E 118°20'713.1
2018-Jun-05 12:29N 23°34' E 118°26'  
Track history (hours):
 
Tides and Currents Weather Stations Pressure Air Temp Water Temp Dewpoint Dewpoint Depression Visibility Wind Speed Wind Dir Waves Ship Positions

Yvonne

Last reported at 2018-Jun-15 10:22 UTC. Time now 2018-Jun-21 17:51 UTC.
Position N 01°30' E 103°08'.

Length 190 m; draft 9.4 m.

Type: Cargo ship. MMSI: 636013469.

Date/timePositionNaut miles runAvg speedWind from/ knotsBaromVisibWave heightAir tempDewpointWater temp
2018-Jun-15 10:22N 01°30' E 103°08'814.7
2018-Jun-15 09:51N 01°25' E 103°14'615.0
2018-Jun-15 09:27N 01°21' E 103°18'614.6
2018-Jun-15 09:00N 01°16' E 103°23'714.0
2018-Jun-15 08:30N 01°13' E 103°30'713.4
2018-Jun-15 08:00N 01°12' E 103°36'713.3
2018-Jun-15 07:31N 01°10' E 103°42'611.4
2018-Jun-15 07:00N 01°10' E 103°48'612.0
2018-Jun-15 06:30N 01°13' E 103°53'3 6.7
2018-Jun-15 06:00N 01°15' E 103°56'3 5.7
2018-Jun-15 05:30N 01°17' E 103°54'0 0.2
2018-Jun-15 04:58N 01°17' E 103°54'0 0.0
2018-Jun-15 04:23N 01°17' E 103°54'0 0.1
2018-Jun-15 03:53N 01°17' E 103°54'0 0.1
2018-Jun-15 03:29N 01°17' E 103°54'0 0.2
2018-Jun-15 02:52N 01°17' E 103°54'0 0.1
2018-Jun-15 02:26N 01°17' E 103°54'0 0.1
2018-Jun-15 01:56N 01°17' E 103°54'0 0.0
2018-Jun-15 01:23N 01°17' E 103°54'0 0.0
2018-Jun-15 00:59N 01°17' E 103°54'0 0.0
2018-Jun-15 00:29N 01°17' E 103°54'0 0.0
2018-Jun-14 23:59N 01°17' E 103°54'0 0.1
2018-Jun-14 23:22N 01°17' E 103°54'0 0.3
2018-Jun-14 22:56N 01°17' E 103°54'0 0.0
2018-Jun-14 22:26N 01°17' E 103°54'0 0.0
2018-Jun-14 21:56N 01°17' E 103°54'0 0.1
2018-Jun-14 21:29N 01°17' E 103°54'0 0.0
2018-Jun-14 20:58N 01°17' E 103°54'0 0.0
2018-Jun-14 20:26N 01°17' E 103°54'0 0.0
2018-Jun-14 19:56N 01°17' E 103°54'0 0.1
2018-Jun-14 19:29N 01°17' E 103°54'0 0.1
2018-Jun-14 18:58N 01°17' E 103°54'0 0.1
2018-Jun-14 18:23N 01°17' E 103°54'0 0.0
2018-Jun-14 17:59N 01°17' E 103°54'0 0.0
2018-Jun-14 17:28N 01°17' E 103°54'0 0.0
2018-Jun-14 16:58N 01°17' E 103°54'0 0.0
2018-Jun-14 16:26N 01°17' E 103°54'0 0.4
2018-Jun-14 15:59N 01°17' E 103°54'0 0.2
2018-Jun-14 15:29N 01°17' E 103°54'1 1.7
2018-Jun-14 15:00N 01°16' E 103°54'2 4.5
2018-Jun-14 14:28N 01°14' E 103°55'2 4.7
2018-Jun-14 14:00N 01°15' E 103°57'3 6.6
2018-Jun-14 13:29N 01°16' E 104°00'4 7.4
2018-Jun-14 12:57N 01°16' E 104°04'410.3
2018-Jun-14 12:30N 01°17' E 104°08'612.7
2018-Jun-14 12:00N 01°18' E 104°15'713.7
2018-Jun-14 11:30N 01°20' E 104°21'713.9
2018-Jun-14 11:00N 01°24' E 104°27'  
2018-Jun-05 16:06N 23°05' E 117°46'212.7
2018-Jun-05 15:58N 23°06' E 117°48'612.6
2018-Jun-05 15:29N 23°10' E 117°53'612.8
2018-Jun-05 15:00N 23°14' E 117°58'612.8
2018-Jun-05 14:30N 23°18' E 118°03'613.1
2018-Jun-05 14:00N 23°21' E 118°09'713.0
2018-Jun-05 13:30N 23°26' E 118°15'612.9
2018-Jun-05 13:00N 23°30' E 118°20'713.1
2018-Jun-05 12:29N 23°34' E 118°26'  

Dump ship's entire track history